D/T METAR WX W/DIR W/SPE G/SPE TEMP DEWP
7/12/19 23:20 EGGW 072320Z AUTO 20019KT 9999 OVC008 09/08 Q1004 SSW (200°) 21.9mph 9°C 8°C
7/12/19 22:50 EGGW 072250Z AUTO 21017KT 9999 OVC008 09/08 Q1005 SSW (210°) 19.6mph 9°C 8°C
7/12/19 22:20 EGGW 072220Z AUTO 21018KT 9999 OVC008 09/08 Q1006 SSW (210°) 20.7mph 9°C 8°C
7/12/19 21:50 EGGW 072150Z AUTO 21017G27KT 9999 OVC009 09/07 Q1006 SSW (210°) 19.6mph 31.1mph 9°C 7°C
7/12/19 20:50 EGGW 072050Z AUTO 21015G26KT 9999 OVC010 08/07 Q1008 SSW (210°) 17.3mph 29.9mph 8°C 7°C
7/12/19 20:20 EGGW 072020Z AUTO 21012KT 9999 OVC011 08/07 Q1008 SSW (210°) 13.8mph 8°C 7°C
7/12/19 19:20 EGGW 071920Z 22013KT 9999 OVC014 08/06 Q1009 SW (220°) 15.0mph 8°C 6°C
7/12/19 18:50 EGGW 071850Z AUTO 23011KT 9999 OVC015 08/06 Q1010 SW (230°) 12.7mph 8°C 6°C
7/12/19 17:50 EGGW 071750Z AUTO 22011KT 9999 OVC017 08/06 Q1011 SW (220°) 12.7mph 8°C 6°C
7/12/19 17:20 EGGW 071720Z 23012KT 9999 BKN020 08/06 Q1011 SW (230°) 13.8mph 8°C 6°C
7/12/19 16:50 EGGW 071650Z AUTO 22009KT 9999 BKN020 08/06 Q1011 SW (220°) 10.4mph 8°C 6°C
7/12/19 16:20 EGGW 071620Z AUTO 21010KT 9999 OVC021 09/06 Q1011 SSW (210°) 11.5mph 9°C 6°C
7/12/19 15:20 EGGW 071520Z AUTO 22009KT 9999 OVC022 09/06 Q1012 SW (220°) 10.4mph 9°C 6°C
7/12/19 14:50 EGGW 071450Z AUTO 22011KT 9999 BKN021 OVC026 09/06 Q1012 SW (220°) 12.7mph 9°C 6°C
7/12/19 14:20 EGGW 071420Z AUTO 21010KT 9999 OVC021 09/06 Q1012 SSW (210°) 11.5mph 9°C 6°C
7/12/19 13:50 EGGW 071350Z AUTO 22011KT 9999 SCT019 BKN025 09/06 Q1012 SW (220°) 12.7mph 9°C 6°C
7/12/19 13:20 EGGW 071320Z AUTO 23012KT 9999 BKN022 09/05 Q1012 SW (230°) 13.8mph 9°C 5°C
7/12/19 12:50 EGGW 071250Z AUTO 24014KT 9999 BKN029 09/05 Q1012 WSW (240°) 16.1mph 9°C 5°C
7/12/19 11:50 EGGW 071150Z AUTO 23009KT 9999 OVC031 09/05 Q1013 SW (230°) 10.4mph 9°C 5°C
7/12/19 10:50 EGGW 071050Z AUTO 23007KT 190V260 9999 OVC030 09/05 Q1013 SW (230°) 8.1mph 9°C 5°C
7/12/19 10:20 EGGW 071020Z AUTO 24009KT 9999 OVC030 08/05 Q1013 WSW (240°) 10.4mph 8°C 5°C
7/12/19 09:50 EGGW 070950Z AUTO 24012KT 9999 OVC030 08/05 Q1013 WSW (240°) 13.8mph 8°C 5°C
7/12/19 09:20 EGGW 070920Z AUTO 25011KT 9999 OVC035 08/05 Q1013 WSW (250°) 12.7mph 8°C 5°C
7/12/19 08:50 EGGW 070850Z AUTO 25011KT 9999 OVC035 08/05 Q1013 WSW (250°) 12.7mph 8°C 5°C
7/12/19 08:20 EGGW 070820Z AUTO 25009KT 9999 OVC035 07/05 Q1013 WSW (250°) 10.4mph 7°C 5°C
7/12/19 07:20 EGGW 070720Z AUTO 25008KT 9999 BKN037 06/05 Q1012 WSW (250°) 9.2mph 6°C 5°C
7/12/19 06:50 EGGW 070650Z AUTO 27010KT 9999 BKN038 07/05 Q1012 W (270°) 11.5mph 7°C 5°C
7/12/19 06:20 EGGW 070620Z AUTO 28013KT 9999 NCD 07/05 Q1012 W (280°) 15.0mph 7°C 5°C
7/12/19 05:50 EGGW 070550Z AUTO 27012KT 9999 SCT036 07/05 Q1011 W (270°) 13.8mph 7°C 5°C
7/12/19 05:20 EGGW 070520Z AUTO 26013KT 9999 OVC037 07/05 Q1011 W (260°) 15.0mph 7°C 5°C
7/12/19 04:50 EGGW 070450Z AUTO 26013KT 9999 BKN037 07/05 Q1011 W (260°) 15.0mph 7°C 5°C
7/12/19 04:20 EGGW 070420Z AUTO 26013KT 9999 SCT040 07/05 Q1010 W (260°) 15.0mph 7°C 5°C
7/12/19 03:50 EGGW 070350Z AUTO 25014KT 9999 OVC038 08/05 Q1010 WSW (250°) 16.1mph 8°C 5°C
7/12/19 03:20 EGGW 070320Z AUTO 26014KT 9999 OVC038 08/05 Q1010 W (260°) 16.1mph 8°C 5°C
7/12/19 02:50 EGGW 070250Z AUTO 26015KT 9999 OVC037 08/06 Q1010 W (260°) 17.3mph 8°C 6°C
7/12/19 02:20 EGGW 070220Z AUTO 25015KT 9999 OVC037 08/06 Q1010 WSW (250°) 17.3mph 8°C 6°C
7/12/19 01:50 EGGW 070150Z AUTO 25014KT 9999 OVC040 08/06 Q1009 WSW (250°) 16.1mph 8°C 6°C
7/12/19 01:20 EGGW 070120Z AUTO 25012KT 9999 OVC037 08/05 Q1009 WSW (250°) 13.8mph 8°C 5°C
7/12/19 00:50 EGGW 070050Z AUTO 25013KT 9999 OVC037 07/05 Q1008 WSW (250°) 15.0mph 7°C 5°C
7/12/19 00:20 EGGW 070020Z AUTO 25013KT 9999 OVC037 07/05 Q1008 WSW (250°) 15.0mph 7°C 5°C
6/12/19 23:50 EGGW 062350Z AUTO 25016KT 9999 BKN037 07/05 Q1008 WSW (250°) 18.4mph 7°C 5°C
6/12/19 23:20 EGGW 062320Z AUTO 26014KT 9999 NCD 07/05 Q1007 W (260°) 16.1mph 7°C 5°C
6/12/19 22:50 EGGW 062250Z AUTO 26013KT 9999 SCT041 07/05 Q1007 W (260°) 15.0mph 7°C 5°C
6/12/19 22:20 EGGW 062220Z AUTO 25011KT 9999 SCT044 07/05 Q1007 WSW (250°) 12.7mph 7°C 5°C
6/12/19 21:50 EGGW 062150Z AUTO 27012KT 9999 FEW036 07/05 Q1007 W (270°) 13.8mph 7°C 5°C
6/12/19 21:20 EGGW 062120Z AUTO 27013KT 9999 NCD 08/05 Q1006 W (270°) 15.0mph 8°C 5°C
6/12/19 20:50 EGGW 062050Z AUTO 28013KT 9999 NCD 08/06 Q1006 W (280°) 15.0mph 8°C 6°C
6/12/19 20:20 EGGW 062020Z AUTO 28014KT 9999 BKN034 09/06 Q1005 W (280°) 16.1mph 9°C 6°C